Flight Track Log - Related Links

Times and Time Zones

All times are in EDT time to prevent confusion due to time zone crossing. See the FIV685 flight status page for this flight to view local times or setup timezone preferences in your user account.

Time Position Orientation Groundspeed Altitude Reporting Facility
EDT Latitude Longitude Course Direction KTS MPH feet Rate Location/Type
Sat 10:06:18 PM 39.2000 -76.7500 258° West 211 243 4,900  Level Potomac TRACON
Sat 10:07:12 PM 39.2000 -76.8167 270° West 238 274 8,400 3,947 Climbing Potomac TRACON
Sat 10:08:12 PM 39.2000 -76.9167 270° West 256 295 12,400 2,842 Climbing Potomac TRACON
Sat 10:10:03 PM 39.1875 -77.1019 265° West 300 345 16,500 1,930 Climbing Washington Center
Sat 10:11:00 PM 39.0263 -77.3755 258° West  Level FlightAware Approximate
Sat 10:11:03 PM 39.1383 -77.1919 235° Southwest 300 345 17,900  Level Washington Center
Sat 10:12:03 PM 39.1075 -77.3008 250° West 311 358 20,700 2,550 Climbing Washington Center
Sat 10:13:03 PM 39.0769 -77.4072 250° West 316 364 23,000 1,450 Climbing Washington Center
Sat 10:14:03 PM 39.0458 -77.5239 251° West 328 377 23,600 1,100 Climbing Washington Center
Sat 10:15:03 PM 39.0103 -77.6567 251° West 353 406 25,200 1,400 Climbing Washington Center
Sat 10:16:03 PM 38.9772 -77.7653 249° West 366 421 26,400 1,050 Climbing Washington Center
Sat 10:17:03 PM 38.9436 -77.8922 251° West 366 421 27,300 1,100 Climbing Washington Center
Sat 10:18:03 PM 38.9053 -78.0297 250° West 378 435 28,600 1,300 Climbing Washington Center
Sat 10:19:03 PM 38.8694 -78.1539 250° West 378 435 29,900 1,100 Climbing Washington Center
Sat 10:20:03 PM 38.8542 -78.2839 261° West 378 435 30,800 1,000 Climbing Washington Center
Sat 10:21:03 PM 38.8531 -78.4225 269° West 378 435 31,900 850 Climbing Washington Center
Sat 10:22:03 PM 38.8497 -78.5583 268° West 384 442 32,500 800 Climbing Washington Center
Sat 10:23:03 PM 38.8339 -78.6911 261° West 384 442 33,500 1,100 Climbing Washington Center
Sat 10:24:03 PM 38.8158 -78.8208 260° West 384 442 34,700 1,050 Climbing Washington Center
Sat 10:25:03 PM 38.7958 -78.9478 259° West 373 429 35,600 900 Climbing Washington Center
Sat 10:26:03 PM 38.7794 -79.0750 261° West 373 429 36,500 900 Climbing Washington Center
Sat 10:27:03 PM 38.7614 -79.1967 259° West 368 423 37,400 800 Climbing Washington Center
Sat 10:28:03 PM 38.7472 -79.3156 261° West 373 429 38,100 700 Climbing Washington Center
Sat 10:29:03 PM 38.7269 -79.4369 258° West 368 423 38,800 700 Climbing Washington Center
Sat 10:30:03 PM 38.7058 -79.5717 259° West 362 417 39,500 600 Climbing Washington Center
Sat 10:31:03 PM 38.6872 -79.6903 259° West 351 404 40,000 250 Climbing Washington Center
Sat 10:32:03 PM 38.6706 -79.8117 260° West 351 404 40,000  Level Washington Center
Sat 10:33:39 PM 38.6381 -79.9972 257° West 362 417 40,000  Level Indianapolis Center
Sat 10:34:39 PM 38.6175 -80.1275 259° West 372 428 40,000  Level Indianapolis Center
Sat 10:35:39 PM 38.5986 -80.2519 259° West 371 427 40,000  Level Indianapolis Center
Sat 10:36:40 PM 38.5778 -80.3794 258° West 376 433 40,000  Level Indianapolis Center
Sat 10:37:40 PM 38.5567 -80.5200 259° West 377 434 40,000  Level Indianapolis Center
Sat 10:38:41 PM 38.5358 -80.6519 259° West 379 436 40,000  Level Indianapolis Center
Sat 10:39:41 PM 38.5136 -80.7828 258° West 377 434 40,000  Level Indianapolis Center
Sat 10:40:41 PM 38.5078 -80.9175 267° West 383 441 40,000  Level Indianapolis Center
Sat 10:41:42 PM 38.5092 -81.0550 271° West 384 442 40,000  Level Indianapolis Center
Sat 10:42:42 PM 38.5114 -81.1928 271° West 387 445 40,000  Level Indianapolis Center
Sat 10:43:43 PM 38.5131 -81.3319 271° West 388 447 40,000  Level Indianapolis Center
Sat 10:44:43 PM 38.5150 -81.4739 271° West 394 453 40,000  Level Indianapolis Center
Sat 10:45:44 PM 38.5172 -81.6150 271° West 391 450 40,000  Level Indianapolis Center
Sat 10:46:44 PM 38.5189 -81.7567 271° West 392 451 40,000  Level Indianapolis Center
Sat 10:47:45 PM 38.5200 -81.8964 271° West 392 451 40,000  Level Indianapolis Center
Sat 10:48:45 PM 38.5211 -82.0361 271° West 392 451 40,000  Level Indianapolis Center
Sat 10:49:45 PM 38.5222 -82.1767 271° West 393 452 40,000  Level Indianapolis Center
Sat 10:50:46 PM 38.5233 -82.3164 271° West 394 453 40,000  Level Indianapolis Center
Sat 10:51:46 PM 38.5239 -82.4558 270° West 393 452 40,000  Level Indianapolis Center
Sat 10:52:47 PM 38.5236 -82.6053 270° West 394 453 40,000  Level Indianapolis Center
Sat 10:53:47 PM 38.5236 -82.7444 270° West 393 452 40,000  Level Indianapolis Center
Sat 10:54:48 PM 38.5239 -82.8842 270° West 394 453 40,000  Level Indianapolis Center
Sat 10:55:48 PM 38.5236 -83.0228 270° West 392 451 40,000  Level Indianapolis Center
Sat 10:56:48 PM 38.5236 -83.1622 270° West 392 451 40,000  Level Indianapolis Center
Sat 10:57:49 PM 38.5233 -83.3011 270° West 391 450 40,000  Level Indianapolis Center
Sat 10:58:49 PM 38.5228 -83.4406 270° West 392 451 40,000  Level Indianapolis Center
Sat 10:59:50 PM 38.5217 -83.5814 269° West 395 455 40,000  Level Indianapolis Center
Sat 11:00:50 PM 38.5211 -83.7206 270° West 393 452 40,000  Level Indianapolis Center
Sat 11:01:51 PM 38.5197 -83.8611 269° West 398 458 40,000  Level Indianapolis Center
Sat 11:02:51 PM 38.5183 -84.0008 269° West 395 455 40,000  Level Indianapolis Center
Sat 11:03:51 PM 38.5172 -84.1422 269° West 398 458 40,000  Level Indianapolis Center
Sat 11:04:52 PM 38.5156 -84.2856 269° West 403 464 40,000  Level Indianapolis Center
Sat 11:05:52 PM 38.5136 -84.4269 269° West 399 459 40,000  Level Indianapolis Center
Sat 11:06:53 PM 38.5108 -84.5697 269° West 402 463 40,000  Level Indianapolis Center
Sat 11:07:53 PM 38.5097 -84.7108 269° West 399 459 40,000  Level Indianapolis Center
Sat 11:08:54 PM 38.5075 -84.8531 269° West 399 459 40,000  Level Indianapolis Center
Sat 11:09:54 PM 38.5053 -84.9942 269° West 397 457 40,000  Level Indianapolis Center
Sat 11:10:54 PM 38.5017 -85.1356 268° West 397 457 40,000  Level Indianapolis Center
Sat 11:11:55 PM 38.4989 -85.2869 269° West 397 457 40,000  Level Indianapolis Center
Sat 11:12:55 PM 38.4958 -85.4292 268° West 398 458 40,000  Level Indianapolis Center
Sat 11:13:56 PM 38.4939 -85.5700 269° West 396 456 40,000  Level Indianapolis Center
Sat 11:14:56 PM 38.4903 -85.7089 268° West 393 452 40,000  Level Indianapolis Center
Sat 11:15:56 PM 38.4867 -85.8467 268° West 387 445 40,000  Level Indianapolis Center
Sat 11:16:57 PM 38.4850 -85.9833 269° West 386 444 40,000  Level Indianapolis Center
Sat 11:17:57 PM 38.4808 -86.1186 268° West 382 440 40,000  Level Indianapolis Center
Sat 11:18:57 PM 38.4767 -86.2547 268° West 382 440 40,000  Level Indianapolis Center
Sat 11:19:58 PM 38.4728 -86.3914 268° West 383 441 40,000  Level Indianapolis Center
Sat 11:20:58 PM 38.4686 -86.5275 268° West 383 441 40,000  Level Indianapolis Center
Sat 11:21:59 PM 38.4644 -86.6622 268° West 381 438 40,000  Level Indianapolis Center
Sat 11:22:59 PM 38.4597 -86.7975 267° West 382 440 40,000  Level Indianapolis Center
Sat 11:23:59 PM 38.4556 -86.9314 268° West 380 437 40,000  Level Indianapolis Center
Sat 11:25:00 PM 38.4514 -87.0650 268° West 383 441 40,000  Level Indianapolis Center
Sat 11:26:00 PM 38.4464 -87.1981 267° West 383 441 40,000  Level Indianapolis Center
Sat 11:27:00 PM 38.4417 -87.3331 267° West 383 441 40,000  Level Indianapolis Center
Sat 11:28:00 PM 38.4358 -87.4692 267° West 385 443 40,000  Level Indianapolis Center
Sat 11:29:01 PM 38.4311 -87.6058 268° West 386 444 40,000  Level Indianapolis Center
Sat 11:30:01 PM 38.4247 -87.7419 267° West 385 443 40,000  Level Indianapolis Center
Sat 11:31:01 PM 38.4189 -87.8789 267° West 385 443 40,000  Level Indianapolis Center
Sat 11:32:02 PM 38.4136 -88.0158 267° West 386 444 40,000  Level Indianapolis Center
Sat 11:33:02 PM 38.4069 -88.1514 266° West 383 441 40,000  Level Indianapolis Center
Sat 11:34:02 PM 38.4008 -88.2858 267° West 381 438 40,000  Level Indianapolis Center
Sat 11:35:02 PM 38.3958 -88.4219 267° West 382 440 40,000  Level Indianapolis Center
Sat 11:36:02 PM 38.3886 -88.5567 266° West 381 438 40,000  Level Indianapolis Center
Sat 11:37:03 PM 38.3814 -88.6925 266° West 382 440 40,000  Level Indianapolis Center
Sat 11:38:03 PM 38.3756 -88.8283 267° West 382 440 40,000  Level Indianapolis Center
Sat 11:39:03 PM 38.3669 -88.9636 265° West 382 440 40,000  Level Indianapolis Center
Sat 11:40:12 PM 38.3600 -89.1231 267° West 379 436 40,000  Level Kansas City Center
Sat 11:41:12 PM 38.3531 -89.2575 266° West 381 438 40,000  Level Kansas City Center
Sat 11:42:13 PM 38.3450 -89.3931 266° West 383 441 40,000  Level Kansas City Center
Sat 11:43:14 PM 38.3383 -89.5278 266° West 384 442 40,000  Level Kansas City Center
Sat 11:44:15 PM 38.3308 -89.6633 266° West 384 442 40,000  Level Kansas City Center
Sat 11:45:15 PM 38.3225 -89.7989 266° West 385 443 40,000  Level Kansas City Center
Sat 11:46:16 PM 38.3153 -89.9342 266° West 383 441 40,000  Level Kansas City Center
Sat 11:47:16 PM 38.3069 -90.0708 266° West 385 443 40,000  Level Kansas City Center
Sat 11:48:14 PM 38.2983 -90.2053 265° West 383 441 40,000  Level Kansas City Center
Sat 11:49:17 PM 38.2897 -90.3422 265° West 387 445 40,000  Level Kansas City Center
Sat 11:50:17 PM 38.2806 -90.4811 265° West 387 445 40,000  Level Kansas City Center
Sat 11:51:18 PM 38.2714 -90.6183 265° West 387 445 40,000  Level Kansas City Center
Sat 11:52:15 PM 38.2619 -90.7556 265° West 388 447 40,000  Level Kansas City Center
Sat 11:53:19 PM 38.2528 -90.8919 265° West 387 445 40,000  Level Kansas City Center
Sat 11:54:19 PM 38.2433 -91.0289 265° West 388 447 40,000  Level Kansas City Center
Sat 11:55:18 PM 38.2336 -91.1656 265° West 388 447 40,000  Level Kansas City Center
Sat 11:56:19 PM 38.2222 -91.3008 264° West 387 445 40,000  Level Kansas City Center
Sat 11:57:20 PM 38.2131 -91.4433 265° West 390 449 40,000  Level Kansas City Center
Sat 11:58:20 PM 38.2031 -91.5800 265° West 389 448 40,000  Level Kansas City Center
Sat 11:59:21 PM 38.1944 -91.7178 265° West 391 450 40,000  Level Kansas City Center
Sun 12:00:21 AM 38.1833 -91.8536 264° West 389 448 40,000  Level Kansas City Center
Sun 12:01:21 AM 38.1725 -91.9914 264° West 392 451 40,000  Level Kansas City Center
Sun 12:02:19 AM 38.1628 -92.1214 265° West 389 448 40,000  Level Kansas City Center
Sun 12:03:22 AM 38.1514 -92.2586 264° West 391 450 40,000  Level Kansas City Center
Sun 12:04:23 AM 38.1394 -92.3978 264° West 395 455 40,000  Level Kansas City Center
Sun 12:05:21 AM 38.1286 -92.5353 264° West 394 453 40,000  Level Kansas City Center
Sun 12:06:22 AM 38.1186 -92.6733 265° West 394 453 40,000  Level Kansas City Center
Sun 12:07:22 AM 38.1075 -92.8092 264° West 391 450 40,000  Level Kansas City Center
Sun 12:08:23 AM 38.0956 -92.9469 264° West 391 450 40,000  Level Kansas City Center
Sun 12:09:24 AM 38.0828 -93.0869 263° West 395 455 40,000  Level Kansas City Center
Sun 12:10:24 AM 38.0731 -93.2272 265° West 398 458 40,000  Level Kansas City Center
Sun 12:11:25 AM 38.0594 -93.3678 263° West 400 460 40,000  Level Kansas City Center
Sun 12:12:25 AM 38.0469 -93.5075 264° West 399 459 40,000  Level Kansas City Center
Sun 12:13:26 AM 38.0347 -93.6472 264° West 398 458 40,000  Level Kansas City Center
Sun 12:14:26 AM 38.0206 -93.7881 263° West 401 461 40,000  Level Kansas City Center
Sun 12:15:25 AM 38.0083 -93.9283 264° West 400 460 40,000  Level Kansas City Center
Sun 12:16:24 AM 37.9953 -94.0689 263° West 400 460 40,000  Level Kansas City Center
Sun 12:17:24 AM 37.9806 -94.2150 263° West 399 459 40,000  Level Kansas City Center
Sun 12:18:24 AM 37.9672 -94.3503 263° West 401 461 40,000  Level Kansas City Center
Sun 12:19:26 AM 37.9517 -94.5053 263° West 399 459 40,000  Level Kansas City Center
Sun 12:20:25 AM 37.9372 -94.6406 262° West 402 463 40,000  Level Kansas City Center
Sun 12:21:25 AM 37.9236 -94.7764 263° West 404 465 40,000  Level Kansas City Center
Sun 12:22:25 AM 37.9106 -94.9092 263° West 400 460 40,000  Level Kansas City Center
Sun 12:23:26 AM 37.8947 -95.0642 263° West 398 458 40,000  Level Kansas City Center
Sun 12:24:26 AM 37.8800 -95.1986 262° West 393 452 40,000  Level Kansas City Center
Sun 12:25:26 AM 37.8653 -95.3375 262° West 396 456 40,000  Level Kansas City Center
Sun 12:26:26 AM 37.8500 -95.4739 262° West 394 453 40,000  Level Kansas City Center
Sun 12:27:29 AM 37.8353 -95.6111 262° West 394 453 40,000  Level Kansas City Center
Sun 12:28:29 AM 37.8208 -95.7475 262° West 394 453 40,000  Level Kansas City Center
Sun 12:29:27 AM 37.8042 -95.8914 262° West 406 467 40,000  Level Kansas City Center
Sun 12:30:28 AM 37.7889 -96.0283 262° West 398 458 40,000  Level Kansas City Center
Sun 12:31:27 AM 37.7764 -96.1464 262° West 395 455 40,000  Level Kansas City Center
Sun 12:32:28 AM 37.7614 -96.2844 262° West 396 456 40,000  Level Kansas City Center
Sun 12:33:29 AM 37.7447 -96.4225 261° West 397 457 40,000  Level Kansas City Center
Sun 12:34:30 AM 37.7289 -96.5600 262° West 396 456 40,000  Level Kansas City Center
Sun 12:35:28 AM 37.7125 -96.6983 262° West 398 458 40,000  Level Kansas City Center
Sun 12:36:28 AM 37.6961 -96.8367 262° West 398 458 40,000  Level Kansas City Center
Sun 12:37:28 AM 37.6800 -96.9742 262° West 397 457 40,000  Level Kansas City Center
Sun 12:38:29 AM 37.6633 -97.1125 261° West 398 458 40,000  Level Kansas City Center
Sun 12:39:30 AM 37.6461 -97.2503 261° West 397 457 40,000  Level Kansas City Center
Sun 12:40:30 AM 37.6292 -97.3875 261° West 396 456 40,000  Level Kansas City Center
Sun 12:41:31 AM 37.6114 -97.5261 261° West 397 457 40,000  Level Kansas City Center
Sun 12:42:30 AM 37.5939 -97.6642 261° West 396 456 40,000  Level Kansas City Center
Sun 12:43:29 AM 37.5769 -97.8033 261° West 398 458 40,000  Level Kansas City Center
Sun 12:44:29 AM 37.5581 -97.9419 260° West 398 458 40,000  Level Kansas City Center
Sun 12:45:30 AM 37.5406 -98.0794 261° West 396 456 40,000  Level Kansas City Center
Sun 12:46:30 AM 37.5214 -98.2181 260° West 397 457 40,000  Level Kansas City Center
Sun 12:47:30 AM 37.5025 -98.3547 260° West 396 456 40,000  Level Kansas City Center
Sun 12:48:30 AM 37.4839 -98.4928 260° West 398 458 40,000  Level Kansas City Center
Sun 12:49:32 AM 37.4656 -98.6319 261° West 400 460 40,000  Level Kansas City Center
Sun 12:50:30 AM 37.4461 -98.7714 260° West 403 464 40,000  Level Kansas City Center
Sun 12:51:32 AM 37.4275 -98.9100 260° West 402 463 40,000  Level Kansas City Center
Sun 12:52:32 AM 37.4081 -99.0489 260° West 404 465 40,000  Level Kansas City Center
Sun 12:53:33 AM 37.3875 -99.1889 260° West 405 466 40,000  Level Kansas City Center
Sun 12:54:31 AM 37.3694 -99.3286 261° West 405 466 40,000  Level Kansas City Center
Sun 12:55:33 AM 37.3458 -99.4822 259° West 404 465 40,000  Level Kansas City Center
Sun 12:56:31 AM 37.3267 -99.6139 260° West 402 463 40,000  Level Kansas City Center
Sun 12:57:31 AM 37.3072 -99.7475 260° West 404 465 40,000  Level Kansas City Center
Sun 12:58:31 AM 37.2850 -99.9017 260° West 402 463 40,000  Level Kansas City Center
Sun 12:59:35 AM 37.2653 -100.0331 259° West 401 461 40,000  Level Kansas City Center
Sun 01:00:36 AM 37.2489 -100.1428 259° West 400 460 40,000  Level Kansas City Center
Sun 01:01:34 AM 37.2269 -100.2969 260° West 401 461 40,000  Level Kansas City Center
Sun 01:02:34 AM 37.2039 -100.4494 259° West 398 458 40,000  Level Kansas City Center
Sun 01:03:35 AM 37.1839 -100.5814 259° West 399 459 40,000  Level Kansas City Center
Sun 01:04:36 AM 37.1636 -100.7131 259° West 400 460 40,000  Level Kansas City Center
Sun 01:05:34 AM 37.1431 -100.8458 259° West 401 461 40,000  Level Kansas City Center
Sun 01:06:35 AM 37.1183 -101.0006 259° West 403 464 40,000  Level Kansas City Center
Sun 01:07:36 AM 37.0978 -101.1319 259° West 402 463 40,000  Level Kansas City Center
Sun 01:08:35 AM 37.0772 -101.2656 259° West 406 467 40,000  Level Kansas City Center
Sun 01:09:35 AM 37.0561 -101.3942 258° West 399 459 40,000  Level Kansas City Center
Sun 01:10:09 AM 37.0425 -101.4811 259° West 397 457 40,000  Level Albuquerque Center
Sun 01:11:10 AM 37.0206 -101.6119 258° West 399 459 40,000  Level Albuquerque Center
Sun 01:12:10 AM 36.9961 -101.7664 259° West 403 464 40,000  Level Albuquerque Center
Sun 01:13:10 AM 36.9750 -101.8978 259° West 404 465 40,000  Level Albuquerque Center
Sun 01:14:11 AM 36.9542 -102.0286 259° West 401 461 40,000  Level Albuquerque Center
Sun 01:15:11 AM 36.9319 -102.1592 258° West 401 461 40,000  Level Albuquerque Center
Sun 01:16:11 AM 36.9058 -102.3114 258° West 401 461 40,000  Level Albuquerque Center
Sun 01:17:12 AM 36.8833 -102.4425 258° West 402 463 40,000  Level Albuquerque Center
Sun 01:18:12 AM 36.8589 -102.5881 258° West 398 458 40,000  Level Albuquerque Center
Sun 01:19:12 AM 36.8367 -102.7172 258° West 397 457 40,000  Level Albuquerque Center
Sun 01:20:13 AM 36.8142 -102.8456 258° West 396 456 40,000  Level Albuquerque Center
Sun 01:21:13 AM 36.7928 -102.9736 258° West 394 453 40,000  Level Albuquerque Center
Sun 01:22:13 AM 36.7650 -103.1231 257° West 395 455 40,000  Level Albuquerque Center
Sun 01:23:14 AM 36.7431 -103.2528 258° West 397 457 40,000  Level Albuquerque Center
Sun 01:24:14 AM 36.7197 -103.3822 257° West 399 459 40,000  Level Albuquerque Center
Sun 01:25:14 AM 36.6958 -103.5114 257° West 398 458 40,000  Level Albuquerque Center
Sun 01:26:15 AM 36.6692 -103.6625 258° West 398 458 40,000  Level Albuquerque Center
Sun 01:27:15 AM 36.6456 -103.7919 257° West 398 458 40,000  Level Albuquerque Center
Sun 01:28:15 AM 36.6211 -103.9264 257° West 396 456 40,000  Level Albuquerque Center
Sun 01:29:16 AM 36.5964 -104.0603 257° West 395 455 40,000  Level Albuquerque Center
Sun 01:30:16 AM 36.5708 -104.1919 256° West 393 452 40,000  Level Albuquerque Center
Sun 01:31:16 AM 36.5461 -104.3256 257° West 394 453 40,000  Level Albuquerque Center
Sun 01:32:16 AM 36.5206 -104.4594 257° West 395 455 40,000  Level Albuquerque Center
Sun 01:33:17 AM 36.4950 -104.5947 257° West 397 457 40,000  Level Albuquerque Center
Sun 01:34:17 AM 36.4694 -104.7281 257° West 397 457 40,000  Level Albuquerque Center
Sun 01:35:17 AM 36.4444 -104.8606 257° West 394 453 40,000  Level Albuquerque Center
Sun 01:36:18 AM 36.4189 -104.9922 256° West 392 451 40,000  Level Albuquerque Center
Sun 01:37:18 AM 36.3919 -105.1247 256° West 395 455 40,000  Level Albuquerque Center
Sun 01:38:18 AM 36.3675 -105.2528 257° West 384 442 40,000  Level Albuquerque Center
Sun 01:39:18 AM 36.3425 -105.3833 257° West 385 443 40,000  Level Albuquerque Center
Sun 01:40:19 AM 36.3158 -105.5131 256° West 386 444 40,000  Level Albuquerque Center
Sun 01:41:19 AM 36.2939 -105.6289 257° West 387 445 40,000  Level Albuquerque Center
Sun 01:42:19 AM 36.2669 -105.7581 256° West 387 445 40,000  Level Albuquerque Center
Sun 01:43:20 AM 36.2419 -105.8881 257° West 390 449 40,000  Level Albuquerque Center
Sun 01:44:20 AM 36.2158 -106.0183 256° West 390 449 40,000  Level Albuquerque Center
Sun 01:45:20 AM 36.1886 -106.1453 255° West 386 444 40,000  Level Albuquerque Center
Sun 01:46:20 AM 36.1631 -106.2750 256° West 388 447 40,000  Level Albuquerque Center
Sun 01:47:21 AM 36.1375 -106.4031 256° West 385 443 40,000  Level Albuquerque Center
Sun 01:48:21 AM 36.1100 -106.5275 255° West 380 437 40,000  Level Albuquerque Center
Sun 01:49:21 AM 36.0842 -106.6567 256° West 386 444 40,000  Level Albuquerque Center
Sun 01:50:22 AM 36.0567 -106.7856 255° West 388 447 40,000  Level Albuquerque Center
Sun 01:51:22 AM 36.0297 -106.9147 256° West 390 449 40,000  Level Albuquerque Center
Sun 01:52:22 AM 36.0022 -107.0436 255° West 390 449 40,000  Level Albuquerque Center
Sun 01:53:22 AM 35.9703 -107.1975 256° West 390 449 40,000  Level Albuquerque Center
Sun 01:54:23 AM 35.9422 -107.3211 254° West 391 450 40,000  Level Albuquerque Center
Sun 01:55:23 AM 35.9158 -107.4467 255° West 393 452 40,000  Level Albuquerque Center
Sun 01:56:23 AM 35.8889 -107.5706 255° West 392 451 40,000  Level Albuquerque Center
Sun 01:57:23 AM 35.8569 -107.7164 255° West 393 452 40,000  Level Albuquerque Center
Sun 01:58:24 AM 35.8294 -107.8408 255° West 393 452 40,000  Level Albuquerque Center
Sun 01:59:24 AM 35.8025 -107.9642 255° West 391 450 40,000  Level Albuquerque Center
Sun 02:00:24 AM 35.7706 -108.1078 255° West 389 448 40,000  Level Albuquerque Center
Sun 02:01:25 AM 35.7431 -108.2319 255° West 391 450 40,000  Level Albuquerque Center
Sun 02:02:25 AM 35.7150 -108.3547 254° West 390 449 40,000  Level Albuquerque Center
Sun 02:03:25 AM 35.6875 -108.4783 255° West 389 448 40,000  Level Albuquerque Center
Sun 02:04:26 AM 35.6553 -108.6214 255° West 387 445 40,000  Level Albuquerque Center
Sun 02:05:26 AM 35.6272 -108.7428 254° West 385 443 40,000  Level Albuquerque Center
Sun 02:06:26 AM 35.5994 -108.8633 254° West 382 440 40,000  Level Albuquerque Center
Sun 02:07:26 AM 35.5725 -108.9819 254° West 379 436 40,000  Level Albuquerque Center
Sun 02:08:27 AM 35.5406 -109.1200 254° West 375 432 40,000  Level Albuquerque Center
Sun 02:09:27 AM 35.5125 -109.2397 254° West 378 435 40,000  Level Albuquerque Center
Sun 02:10:27 AM 35.4850 -109.3583 254° West 378 435 40,000  Level Albuquerque Center
Sun 02:11:28 AM 35.4567 -109.4772 254° West 378 435 40,000  Level Albuquerque Center
Sun 02:12:28 AM 35.4244 -109.6178 254° West 380 437 40,000  Level Albuquerque Center
Sun 02:13:29 AM 35.3961 -109.7347 253° West 376 433 40,000  Level Albuquerque Center
Sun 02:14:29 AM 35.3667 -109.8544 253° West 382 440 40,000  Level Albuquerque Center
Sun 02:15:29 AM 35.3342 -109.9919 254° West 379 436 40,000  Level Albuquerque Center
Sun 02:16:30 AM 35.3033 -110.1106 252° West 381 438 40,000  Level Albuquerque Center
Sun 02:17:30 AM 35.2744 -110.2281 253° West 379 436 40,000  Level Albuquerque Center
Sun 02:18:30 AM 35.2450 -110.3467 253° West 380 437 40,000  Level Albuquerque Center
Sun 02:19:31 AM 35.2122 -110.4847 254° West 379 436 40,000  Level Albuquerque Center
Sun 02:20:31 AM 35.1808 -110.6022 252° West 379 436 40,000  Level Albuquerque Center
Sun 02:21:31 AM 35.1506 -110.7183 252° West 376 433 40,000  Level Albuquerque Center
Sun 02:22:32 AM 35.1172 -110.8567 254° West 379 436 40,000  Level Albuquerque Center
Sun 02:23:32 AM 35.0869 -110.9739 253° West 380 437 40,000  Level Albuquerque Center
Sun 02:24:33 AM 35.0578 -111.1025 255° West 388 447 40,000  Level Albuquerque Center
Sun 02:25:33 AM 35.0272 -111.2292 254° West 392 451 40,000  Level Albuquerque Center
Sun 02:26:33 AM 34.9950 -111.3508 252° West 383 441 40,000  Level Albuquerque Center
Sun 02:27:34 AM 34.9639 -111.4736 253° West 382 440 40,000  Level Albuquerque Center
Sun 02:28:34 AM 34.9317 -111.5969 252° West 382 440 40,000  Level Albuquerque Center
Sun 02:29:35 AM 34.8994 -111.7236 253° West 384 442 40,000  Level Albuquerque Center
Sun 02:30:35 AM 34.8739 -111.8228 253° West 385 443 40,000  Level Albuquerque Center
Sun 02:31:35 AM 34.8356 -111.9703 252° West 383 441 40,000  Level Albuquerque Center
Sun 02:32:36 AM 34.8036 -112.0931 252° West 383 441 40,000  Level Albuquerque Center
Sun 02:33:36 AM 34.7717 -112.2156 252° West 381 438 40,000  Level Albuquerque Center
Sun 02:34:36 AM 34.7406 -112.3325 252° West 380 437 40,000  Level Albuquerque Center
Sun 02:35:37 AM 34.7078 -112.4603 253° West 381 438 40,000  Level Albuquerque Center
Sun 02:36:37 AM 34.6753 -112.5831 252° West 382 440 40,000  Level Albuquerque Center
Sun 02:37:38 AM 34.6436 -112.7047 252° West 380 437 40,000  Level Albuquerque Center
Sun 02:38:38 AM 34.6103 -112.8275 252° West 382 440 40,000  Level Albuquerque Center
Sun 02:39:38 AM 34.5783 -112.9508 253° West 383 441 40,000  Level Albuquerque Center
Sun 02:40:39 AM 34.5447 -113.0747 252° West 386 444 40,000  Level Albuquerque Center
Sun 02:41:39 AM 34.5108 -113.1989 252° West 388 447 40,000  Level Albuquerque Center
Sun 02:42:39 AM 34.4775 -113.3222 252° West 387 445 40,000  Level Albuquerque Center
Sun 02:43:40 AM 34.4447 -113.4469 252° West 387 445 40,000  Level Albuquerque Center
Sun 02:44:40 AM 34.4067 -113.5850 252° West 386 444 40,000  Level Albuquerque Center
Sun 02:45:41 AM 34.3761 -113.6917 251° West 387 445 40,000  Level Albuquerque Center
Sun 02:46:41 AM 34.3464 -113.8169 254° West 389 448 40,000  Level Albuquerque Center
Sun 02:47:41 AM 34.3192 -113.9422 255° West 387 445 40,000  Level Albuquerque Center
Sun 02:48:42 AM 34.2933 -114.0669 256° West 384 442 40,000  Level Albuquerque Center
Sun 02:49:42 AM 34.2656 -114.1917 255° West 384 442 40,000 -300 Level Albuquerque Center
Sun 02:50:42 AM 34.2381 -114.3158 255° West 383 441 39,400 -1,082 Descending Albuquerque Center
Sun 02:51:44 AM 34.2106 -114.4497 256° West 385 443 37,800 -1,574 Descending Los Angeles Center
Sun 02:52:44 AM 34.1808 -114.5775 254° West 391 450 36,200 -1,500 Descending Los Angeles Center
Sun 02:53:44 AM 34.1508 -114.7131 255° West 414 476 34,800 -1,438 Descending Los Angeles Center
Sun 02:54:45 AM 34.1211 -114.8492 255° West 421 484 33,300 -1,488 Descending Los Angeles Center
Sun 02:55:45 AM 34.0906 -114.9861 255° West 423 487 31,800 -1,500 Descending Los Angeles Center
Sun 02:56:45 AM 34.0589 -115.1208 254° West 419 482 30,300 -1,500 Descending Los Angeles Center
Sun 02:57:45 AM 34.0275 -115.2594 255° West 429 494 28,800 -1,488 Descending Los Angeles Center
Sun 02:58:46 AM 33.9961 -115.3967 255° West 426 490 27,300 -1,488 Descending Los Angeles Center
Sun 02:59:46 AM 33.9650 -115.5314 254° West 419 482 25,800 -1,650 Descending Los Angeles Center
Sun 03:00:46 AM 33.9286 -115.6911 255° West 415 478 24,000 -1,636 Descending Los Angeles Center
Sun 03:01:47 AM 33.9108 -115.8225 261° West 403 464 22,500 -1,488 Descending Los Angeles Center
Sun 03:02:47 AM 33.9025 -115.9475 265° West 382 440 21,000 -2,200 Descending Los Angeles Center
Sun 03:03:47 AM 33.8931 -116.0672 265° West 366 421 18,100 -3,150 Descending Los Angeles Center
Sun 03:04:47 AM 33.8164 -116.1214 210° Southwest 334 384 14,700 -3,322 Descending Los Angeles Center
Sun 03:05:48 AM 33.7311 -116.1600 201° Southwest 330 380 11,400 -2,926 Descending Los Angeles Center
Sun 03:06:48 AM 33.6650 -116.2108 213° Southwest 310 357 8,800 -2,550 Descending Los Angeles Center
Sun 03:07:48 AM 33.6731 -116.3000 276° West 287 330 6,300 -1,488 Descending Los Angeles Center
Sun 03:08:49 AM 33.6861 -116.3858 280° West 283 326 5,800 -492 Descending Los Angeles Center

Login

Don't have an account? Register now (free) for customized features, flight alerts, and more!